• Join FlightAware (Why Join?)
  • Login
  • US Flag 
06:40PM EDT


 

Airport Tracker/Info


-or-


 

Live Flight TrackerFlight Track Log ✈ DAL1118 ✈ 10-Oct-2013 ✈ KSLC - KJAC

Flight Track Log - Related Links

Times and Time Zones

All times are in EDT time to prevent confusion due to time zone crossing. See the DAL1118 flight status page for this flight to view local times or setup timezone preferences in your user account.

Time Position Orientation Groundspeed Altitude Reporting Facility
EDT Latitude Longitude Course Direction KTS MPH feet Rate Location/Type
10:23PM 40.8111 -111.9806 17° North 164 189 5,000  Level Salt Lake Center
10:23PM 40.8264 -111.9811 358° North 169 194 5,700 1,380 Climbing Salt Lake Center
10:23PM 40.8264 -111.9792 90° East 162 186 5,600 1,260 Descending Salt Lake Center
10:24PM 40.8878 -111.9881 354° North 224 258 7,200 2,160 Climbing Salt Lake Center
10:25PM 40.9608 -111.9978 354° North 261 300 10,100 3,000 Climbing Salt Lake Center
10:26PM 41.1855 -111.8100 15° North  Level Estimated
10:26PM 41.0417 -112.0103 353° North 287 330 13,400  Level Salt Lake Center
10:27PM 41.2834 -111.7627 20° North  Level FlightAware Approximate
10:27PM 41.1200 -111.9619 25° Northeast 342 394 14,900  Level Salt Lake Center
10:28PM 41.3827 -111.7206 17° North  Level Estimated
10:28PM 41.1964 -111.8558 46° Northeast 392 451 16,500  Level Salt Lake Center
10:29PM 41.3119 -111.7658 30° Northeast 399 459 19,500 2,340 Climbing Salt Lake Center
10:30PM 41.4142 -111.6992 26° Northeast 407 468 21,400 1,800 Climbing Salt Lake Center
10:31PM 41.5203 -111.6311 26° Northeast 420 483 23,200 1,560 Climbing Salt Lake Center
10:32PM 41.6300 -111.5661 24° Northeast 430 495 24,700 1,380 Climbing Salt Lake Center
10:33PM 41.7475 -111.5219 16° North 439 505 26,100 1,260 Climbing Salt Lake Center
10:34PM 41.8658 -111.4747 17° North 445 512 27,300 1,260 Climbing Salt Lake Center
10:35PM 41.9872 -111.4278 16° North 452 520 28,700 60 Climbing Salt Lake Center
10:36PM 42.1058 -111.3789 17° North 446 513 27,500 -1,440 Descending Salt Lake Center
10:37PM 42.2497 -111.3228 16° North 449 517 25,800 -1,260 Descending Salt Lake Center
10:38PM 42.3678 -111.2747 17° North 444 511 25,000 -540 Descending Salt Lake Center
10:39PM 42.4861 -111.2272 16° North 444 511 24,700 -600 Descending Salt Lake Center
10:41PM 42.5958 -111.1831 17° North 416 479 23,800 -1,620 Descending Salt Lake Center
10:42PM 42.7097 -111.1364 17° North 406 467 21,500 -2,340 Descending Salt Lake Center
10:43PM 42.8153 -111.0939 16° North 398 458 19,100 -2,280 Descending Salt Lake Center
10:44PM 42.9164 -111.0511 17° North 383 441 16,900 -1,980 Descending Salt Lake Center
10:45PM 43.0064 -111.0133 17° North 343 395 15,100 -1,620 Descending Salt Lake Center
10:46PM 43.0861 -110.9817 16° North 305 351 13,600 -1,080 Descending Salt Lake Center
10:47PM 43.1631 -110.9500 17° North 291 335 12,900 -420 Descending Salt Lake Center
10:48PM 43.2394 -110.9169 17° North 287 330 12,800 -1,020 Descending Salt Lake Center
10:49PM 43.3156 -110.8800 19° North 248 285 10,800 -1,380 Descending Salt Lake Center
10:50PM 43.3692 -110.8536 20° North 219 252 10,000 -720 Descending Salt Lake Center
10:51PM 43.4144 -110.8328 18° North 193 222 9,400 -300 Descending Salt Lake Center
10:52PM 43.4531 -110.8136 20° North 168 193 9,400 -420 Level Salt Lake Center
10:53PM 43.4894 -110.7958 20° North 151 174 8,600 -780 Descending Salt Lake Center
10:54PM 43.5286 -110.7767 20° North 148 170 7,800 -840 Descending Salt Lake Center
10:55PM 43.5672 -110.7575 20° North 148 170 7,000 -780 Descending Salt Lake Center
10:56PM 43.6100 -110.7364 20° North 146 168 6,300 -720 Descending Salt Lake Center